createdAt,value
2023-10-05T00:00:39.209Z,11.80
2023-10-05T00:03:07.703Z,11.70
2023-10-05T00:06:30.202Z,11.60
2023-10-05T00:08:57.459Z,11.70
2023-10-05T00:11:31.096Z,11.80
2023-10-05T00:14:01.243Z,11.90
2023-10-05T00:16:39.470Z,11.90
2023-10-05T00:19:13.284Z,11.90
2023-10-05T00:21:52.854Z,11.90
2023-10-05T00:24:43.353Z,11.80
2023-10-05T00:27:11.005Z,11.80
2023-10-05T00:29:43.025Z,11.60
2023-10-05T00:32:35.486Z,11.50
2023-10-05T00:35:17.986Z,11.40
2023-10-05T00:37:46.148Z,11.20
2023-10-05T00:40:26.431Z,11.10
2023-10-05T00:42:53.664Z,11.20
2023-10-05T00:45:26.874Z,11.20
2023-10-05T00:48:03.429Z,11.30
2023-10-05T00:50:30.551Z,11.40
2023-10-05T00:52:58.113Z,11.30
2023-10-05T00:55:27.177Z,11.30
2023-10-05T00:57:55.602Z,11.30
2023-10-05T01:00:29.856Z,11.30
2023-10-05T01:03:24.635Z,11.20
2023-10-05T01:06:14.117Z,11.20
2023-10-05T01:09:01.353Z,11.10
2023-10-05T01:11:42.226Z,11.10
2023-10-05T01:14:09.913Z,11.30
2023-10-05T01:16:37.349Z,11.30
2023-10-05T01:19:05.070Z,11.30
2023-10-05T01:21:32.689Z,11.30
2023-10-05T01:24:00.334Z,11.20
2023-10-05T01:26:28.127Z,10.90
2023-10-05T01:28:55.262Z,10.80
2023-10-05T01:31:23.363Z,10.70
2023-10-05T01:33:50.699Z,10.70
2023-10-05T01:36:24.012Z,10.80
2023-10-05T01:38:55.471Z,10.90
2023-10-05T01:41:22.936Z,10.80
2023-10-05T01:43:51.267Z,10.80
2023-10-05T01:46:18.858Z,10.80
2023-10-05T01:48:46.458Z,10.90
2023-10-05T01:51:21.184Z,10.80
2023-10-05T01:53:53.172Z,10.80
2023-10-05T01:56:22.319Z,10.90
2023-10-05T01:58:55.898Z,10.90
2023-10-05T02:01:29.066Z,10.80
2023-10-05T02:03:59.299Z,10.80
2023-10-05T02:06:30.110Z,10.90
2023-10-05T02:08:57.701Z,10.90
2023-10-05T02:11:28.903Z,11.00
2023-10-05T02:13:59.706Z,11.00
2023-10-05T02:16:28.780Z,11.00
2023-10-05T02:18:57.300Z,11.00
2023-10-05T02:21:39.378Z,11.00
2023-10-05T02:24:18.709Z,10.90
2023-10-05T02:26:57.240Z,10.80
2023-10-05T02:29:26.791Z,10.60
2023-10-05T02:32:03.899Z,10.60
2023-10-05T02:34:38.898Z,10.60
2023-10-05T02:37:07.314Z,10.50
2023-10-05T02:39:38.336Z,10.60
2023-10-05T02:42:08.593Z,10.70
2023-10-05T02:44:36.816Z,10.90
2023-10-05T02:47:12.370Z,10.70
2023-10-05T02:49:45.107Z,10.50
2023-10-05T02:52:17.352Z,10.40
2023-10-05T02:54:45.365Z,10.50
2023-10-05T02:57:17.830Z,10.60
2023-10-05T02:59:45.741Z,10.50
2023-10-05T03:02:18.226Z,10.40
2023-10-05T03:04:46.971Z,10.30
2023-10-05T03:07:21.123Z,10.30
2023-10-05T03:09:50.471Z,10.30
2023-10-05T03:12:22.400Z,10.30
2023-10-05T03:14:51.722Z,10.50
2023-10-05T03:17:23.415Z,10.50
2023-10-05T03:19:53.813Z,10.50
2023-10-05T03:22:25.729Z,10.60
2023-10-05T03:24:55.854Z,10.50
2023-10-05T03:27:24.201Z,10.40
2023-10-05T03:29:54.093Z,10.40
2023-10-05T03:32:21.319Z,10.30
2023-10-05T03:34:57.639Z,10.40
2023-10-05T03:37:25.864Z,10.30
2023-10-05T03:39:54.817Z,10.40
2023-10-05T03:42:25.429Z,10.40
2023-10-05T03:45:05.709Z,10.30
2023-10-05T03:47:33.429Z,10.20
2023-10-05T03:50:01.088Z,10.00
2023-10-05T03:52:31.567Z,9.90
2023-10-05T03:55:11.135Z,10.00
2023-10-05T03:57:39.778Z,9.90
2023-10-05T04:00:28.307Z,9.90
2023-10-05T04:02:55.947Z,10.00
2023-10-05T04:05:24.907Z,10.00
2023-10-05T04:07:54.082Z,10.00
2023-10-05T04:10:47.971Z,10.10
2023-10-05T04:13:16.911Z,10.10
2023-10-05T04:15:44.506Z,10.00
2023-10-05T04:18:17.982Z,10.00
2023-10-05T04:20:45.638Z,10.00
2023-10-05T04:23:17.398Z,9.80
2023-10-05T04:25:45.975Z,9.70
2023-10-05T04:28:13.195Z,9.70
2023-10-05T04:30:40.634Z,9.80
2023-10-05T04:33:08.595Z,9.60
2023-10-05T04:35:43.974Z,9.60
2023-10-05T04:38:12.236Z,9.70
2023-10-05T04:40:40.408Z,9.60
2023-10-05T04:43:12.480Z,9.60
2023-10-05T04:45:44.359Z,9.60
2023-10-05T04:48:14.102Z,9.50
2023-10-05T04:50:45.293Z,9.80
2023-10-05T04:53:15.174Z,9.70
2023-10-05T04:55:44.462Z,9.70
2023-10-05T04:58:43.521Z,9.70
2023-10-05T05:01:30.419Z,9.70
2023-10-05T05:04:02.483Z,9.70
2023-10-05T05:06:33.477Z,9.70
2023-10-05T05:09:01.588Z,9.80
2023-10-05T05:11:28.759Z,9.90
2023-10-05T05:13:56.108Z,9.90
2023-10-05T05:16:23.289Z,9.80
2023-10-05T05:18:50.975Z,9.90
2023-10-05T05:21:18.180Z,10.10
2023-10-05T05:23:46.551Z,10.60
2023-10-05T05:26:13.730Z,11.10
2023-10-05T05:28:40.907Z,11.70
2023-10-05T05:31:20.536Z,11.80
2023-10-05T05:33:48.027Z,12.10
2023-10-05T05:36:15.954Z,12.50
2023-10-05T05:38:49.185Z,12.80
2023-10-05T05:41:18.083Z,13.50
2023-10-05T05:43:46.045Z,14.40
2023-10-05T05:46:14.739Z,14.80
2023-10-05T05:48:50.049Z,14.90
2023-10-05T05:51:24.718Z,15.00
2023-10-05T05:53:53.588Z,15.80
2023-10-05T05:56:20.762Z,16.00
2023-10-05T05:58:49.279Z,16.90
2023-10-05T06:01:16.884Z,18.10
2023-10-05T06:03:54.569Z,18.60
2023-10-05T06:06:22.150Z,19.30
2023-10-05T06:08:50.573Z,19.20
2023-10-05T06:11:17.911Z,19.20
2023-10-05T06:13:47.507Z,19.50
2023-10-05T06:16:16.239Z,20.00
2023-10-05T06:18:44.827Z,19.90
2023-10-05T06:21:12.965Z,20.10
2023-10-05T06:23:40.140Z,20.80
2023-10-05T06:26:08.128Z,21.10
2023-10-05T06:28:35.854Z,21.60
2023-10-05T06:31:03.230Z,21.90
2023-10-05T06:33:30.591Z,21.40
2023-10-05T06:35:57.778Z,21.40
2023-10-05T06:38:24.974Z,22.20
2023-10-05T06:40:52.395Z,22.60
2023-10-05T06:43:19.684Z,22.60
2023-10-05T06:45:47.030Z,22.20
2023-10-05T06:48:16.115Z,21.80
2023-10-05T06:50:44.751Z,21.60
2023-10-05T06:53:15.045Z,21.50
2023-10-05T06:55:42.368Z,21.50
2023-10-05T06:58:09.607Z,22.40
2023-10-05T07:00:37.049Z,23.20
2023-10-05T07:03:08.325Z,23.70
2023-10-05T07:05:35.925Z,23.80
2023-10-05T07:08:03.261Z,24.20
2023-10-05T07:10:31.626Z,24.60
2023-10-05T07:13:00.122Z,24.80
2023-10-05T07:15:27.468Z,24.50
2023-10-05T07:17:54.691Z,23.90
2023-10-05T07:20:21.908Z,23.20
2023-10-05T07:22:50.125Z,22.80
2023-10-05T07:25:18.689Z,22.20
2023-10-05T07:27:47.076Z,21.90
2023-10-05T07:30:14.847Z,21.60
2023-10-05T07:32:43.155Z,21.50
2023-10-05T07:35:13.792Z,20.90
2023-10-05T07:37:41.431Z,20.50
2023-10-05T07:40:09.378Z,20.40
2023-10-05T07:42:38.960Z,20.00
2023-10-05T07:45:13.076Z,19.70
2023-10-05T07:47:50.316Z,19.00
2023-10-05T07:50:17.778Z,18.30
2023-10-05T07:52:45.599Z,17.50
2023-10-05T07:55:12.936Z,16.70
2023-10-05T07:57:40.605Z,16.50
2023-10-05T08:00:13.632Z,16.40
2023-10-05T08:02:43.710Z,16.20
2023-10-05T08:05:16.644Z,15.90
2023-10-05T08:07:48.485Z,15.70
2023-10-05T08:10:17.543Z,15.70
2023-10-05T08:12:45.382Z,15.50
2023-10-05T08:15:20.102Z,15.60
2023-10-05T08:17:49.998Z,15.70
2023-10-05T08:20:21.633Z,15.50
2023-10-05T08:22:51.206Z,15.20
2023-10-05T08:25:19.423Z,15.00
2023-10-05T08:27:50.102Z,14.90
2023-10-05T08:30:17.497Z,15.00
2023-10-05T08:32:49.448Z,15.10
2023-10-05T08:35:20.421Z,15.30
2023-10-05T08:37:51.037Z,15.30
2023-10-05T08:40:39.275Z,15.30
2023-10-05T08:43:12.919Z,15.20
2023-10-05T08:45:49.270Z,15.20
2023-10-05T08:48:21.592Z,15.40
2023-10-05T08:50:55.582Z,15.50
2023-10-05T08:53:23.651Z,15.50
2023-10-05T08:55:53.397Z,15.50
2023-10-05T08:58:22.911Z,15.60
2023-10-05T09:00:50.484Z,15.70
2023-10-05T09:03:40.689Z,15.80
2023-10-05T09:06:14.852Z,16.00
2023-10-05T09:08:53.528Z,16.10
2023-10-05T09:11:32.982Z,16.20
2023-10-05T09:14:26.022Z,16.30
2023-10-05T09:17:09.332Z,16.40
2023-10-05T09:19:38.869Z,16.40
2023-10-05T09:22:14.029Z,16.40
2023-10-05T09:24:54.462Z,16.30
2023-10-05T09:27:21.964Z,16.20
2023-10-05T09:29:53.192Z,16.40
2023-10-05T09:32:34.977Z,16.40
2023-10-05T09:35:02.425Z,16.40
2023-10-05T09:37:30.903Z,16.50
2023-10-05T09:40:02.797Z,16.40
2023-10-05T09:42:35.592Z,16.30
2023-10-05T09:45:12.641Z,16.50
2023-10-05T09:47:42.136Z,16.50
2023-10-05T09:50:11.768Z,16.40
2023-10-05T09:52:39.980Z,16.50
2023-10-05T09:55:09.297Z,16.50
2023-10-05T09:57:43.144Z,16.70
2023-10-05T10:00:31.121Z,16.90
2023-10-05T10:03:01.303Z,16.90
2023-10-05T10:06:11.591Z,16.90
2023-10-05T10:08:55.467Z,16.80
2023-10-05T10:11:29.012Z,16.70
2023-10-05T10:14:06.382Z,16.70
2023-10-05T10:16:41.110Z,16.90
2023-10-05T10:19:20.908Z,16.80
2023-10-05T10:22:21.128Z,16.90
2023-10-05T10:24:57.108Z,16.90
2023-10-05T10:27:28.589Z,17.00
2023-10-05T10:30:01.914Z,17.30
2023-10-05T10:32:36.090Z,17.30
2023-10-05T10:35:16.169Z,17.50
2023-10-05T10:37:50.891Z,17.40
2023-10-05T10:40:21.042Z,17.60
2023-10-05T10:43:08.939Z,17.60
2023-10-05T10:45:45.600Z,17.60
2023-10-05T10:48:22.130Z,17.60
2023-10-05T10:50:54.452Z,17.60
2023-10-05T10:53:32.381Z,17.70
2023-10-05T10:56:19.079Z,17.70
2023-10-05T10:58:47.049Z,17.70
2023-10-05T11:01:30.168Z,17.70
2023-10-05T11:04:02.880Z,17.60
2023-10-05T11:06:32.410Z,17.60
2023-10-05T11:09:11.711Z,17.70
2023-10-05T11:11:39.055Z,17.70
2023-10-05T11:14:22.866Z,17.70
2023-10-05T11:17:01.044Z,17.60
2023-10-05T11:19:38.242Z,17.80
2023-10-05T11:22:09.030Z,17.90
2023-10-05T11:24:40.320Z,17.90
2023-10-05T11:27:16.346Z,17.90
2023-10-05T11:29:44.416Z,17.90
2023-10-05T11:32:35.731Z,18.10
2023-10-05T11:35:17.083Z,18.20
2023-10-05T11:38:00.749Z,18.30
2023-10-05T11:40:51.331Z,18.30
2023-10-05T11:43:19.862Z,18.40
2023-10-05T11:46:25.157Z,18.20
2023-10-05T11:48:56.546Z,18.10
2023-10-05T11:51:43.051Z,18.20
2023-10-05T11:54:16.697Z,18.30
2023-10-05T11:56:44.367Z,18.30
2023-10-05T11:59:12.121Z,18.40
2023-10-05T12:01:42.667Z,18.40
2023-10-05T12:04:11.124Z,18.40
2023-10-05T12:06:41.329Z,18.40
2023-10-05T12:09:08.890Z,18.20
2023-10-05T12:11:37.202Z,18.20
2023-10-05T12:14:06.147Z,18.10
2023-10-05T12:16:40.636Z,18.20
2023-10-05T12:19:15.532Z,18.20
2023-10-05T12:21:44.989Z,18.40
2023-10-05T12:24:12.881Z,18.30
2023-10-05T12:26:45.297Z,18.40
2023-10-05T12:29:17.044Z,18.50
2023-10-05T12:31:47.011Z,18.60
2023-10-05T12:34:28.731Z,18.50
2023-10-05T12:36:57.174Z,18.50
2023-10-05T12:39:29.288Z,18.60
2023-10-05T12:41:57.744Z,18.80
2023-10-05T12:44:25.686Z,18.80
2023-10-05T12:46:52.992Z,18.80
2023-10-05T12:49:24.106Z,18.80
2023-10-05T12:51:54.385Z,18.80
2023-10-05T12:54:29.921Z,18.70
2023-10-05T12:59:30.248Z,18.80
2023-10-05T13:02:03.849Z,18.90
2023-10-05T13:04:32.741Z,18.90
2023-10-05T13:06:59.888Z,18.90
2023-10-05T13:09:26.989Z,19.00
2023-10-05T13:11:54.910Z,19.20
2023-10-05T13:14:22.208Z,19.10
2023-10-05T13:16:52.565Z,19.10
2023-10-05T13:19:19.862Z,19.10
2023-10-05T13:21:47.979Z,19.10
2023-10-05T13:24:16.644Z,19.30
2023-10-05T13:26:47.828Z,19.30
2023-10-05T13:29:19.498Z,19.30
2023-10-05T13:31:47.340Z,19.30
2023-10-05T13:34:18.016Z,19.30
2023-10-05T13:36:45.670Z,19.10
2023-10-05T13:39:13.892Z,19.10
2023-10-05T13:41:47.817Z,19.20
2023-10-05T13:44:15.872Z,19.00
2023-10-05T13:46:49.297Z,18.90
2023-10-05T13:49:18.372Z,19.00
2023-10-05T13:51:45.998Z,19.00
2023-10-05T13:54:16.758Z,18.90
2023-10-05T13:56:43.964Z,19.00
2023-10-05T13:59:18.700Z,19.10
2023-10-05T14:01:46.537Z,19.10
2023-10-05T14:04:16.548Z,19.10
2023-10-05T14:06:46.869Z,19.10
2023-10-05T14:09:17.362Z,19.00
2023-10-05T14:11:46.831Z,18.90
2023-10-05T14:14:16.126Z,18.90
2023-10-05T14:16:55.488Z,18.80
2023-10-05T14:19:24.151Z,18.80
2023-10-05T14:21:53.121Z,18.90
2023-10-05T14:24:22.532Z,19.00
2023-10-05T14:26:50.452Z,19.00
2023-10-05T14:29:20.992Z,19.00
2023-10-05T14:31:53.458Z,19.20
2023-10-05T14:34:23.144Z,19.10
2023-10-05T14:36:54.012Z,19.10
2023-10-05T14:39:24.236Z,19.10
2023-10-05T14:41:57.778Z,19.10
2023-10-05T14:44:30.142Z,19.20
2023-10-05T14:47:00.925Z,19.20
2023-10-05T14:49:28.173Z,19.20
2023-10-05T14:51:55.860Z,19.20
2023-10-05T14:54:23.614Z,19.20
2023-10-05T14:56:51.612Z,19.40
2023-10-05T14:59:20.665Z,19.40
2023-10-05T15:01:48.345Z,19.20
2023-10-05T15:04:18.382Z,19.20
2023-10-05T15:06:45.734Z,19.10
2023-10-05T15:09:13.546Z,19.10
2023-10-05T15:11:41.796Z,19.10
2023-10-05T15:14:10.656Z,18.90
2023-10-05T15:16:37.942Z,18.90
2023-10-05T15:19:07.230Z,18.80
2023-10-05T15:21:35.212Z,18.90
2023-10-05T15:24:03.976Z,18.90
2023-10-05T15:26:32.345Z,18.80
2023-10-05T15:29:00.569Z,18.80
2023-10-05T15:31:27.818Z,18.80
2023-10-05T15:33:55.117Z,18.60
2023-10-05T15:36:22.275Z,18.60
2023-10-05T15:38:53.163Z,18.70
2023-10-05T15:41:23.832Z,18.50
2023-10-05T15:43:52.235Z,18.30
2023-10-05T15:46:21.290Z,18.30
2023-10-05T15:48:48.811Z,18.20
2023-10-05T15:51:16.258Z,18.40
2023-10-05T15:53:53.684Z,18.30
2023-10-05T15:56:22.511Z,18.00
2023-10-05T15:58:49.769Z,17.90
2023-10-05T16:01:17.088Z,17.80
2023-10-05T16:03:44.706Z,17.70
2023-10-05T16:06:23.720Z,17.60
2023-10-05T16:08:54.550Z,17.50
2023-10-05T16:11:21.839Z,17.80
2023-10-05T16:13:50.615Z,17.80
2023-10-05T16:16:18.952Z,17.80
2023-10-05T16:18:46.222Z,17.80
2023-10-05T16:21:13.638Z,17.70
2023-10-05T16:23:41.041Z,17.80
2023-10-05T16:26:08.463Z,17.90
2023-10-05T16:28:37.700Z,17.90
2023-10-05T16:31:04.922Z,17.80
2023-10-05T16:33:32.297Z,17.70
2023-10-05T16:35:59.630Z,17.60
2023-10-05T16:38:27.871Z,17.70
2023-10-05T16:40:57.989Z,17.60
2023-10-05T16:43:27.087Z,17.40
2023-10-05T16:45:56.026Z,17.30
2023-10-05T16:48:23.379Z,17.40
2023-10-05T16:50:50.756Z,17.60
2023-10-05T16:53:18.247Z,17.50
2023-10-05T16:55:45.790Z,17.40
2023-10-05T16:58:13.250Z,17.30
2023-10-05T17:00:42.008Z,17.30
2023-10-05T17:03:12.631Z,17.20
2023-10-05T17:05:41.072Z,17.10
2023-10-05T17:08:10.555Z,17.30
2023-10-05T17:10:38.806Z,17.30
2023-10-05T17:13:06.206Z,17.20
2023-10-05T17:15:33.472Z,17.10
2023-10-05T17:18:00.775Z,17.10
2023-10-05T17:20:27.937Z,17.00
2023-10-05T17:22:55.155Z,16.90
2023-10-05T17:25:25.476Z,16.80
2023-10-05T17:27:53.068Z,16.80
2023-10-05T17:30:20.752Z,16.80
2023-10-05T17:32:49.135Z,16.70
2023-10-05T17:35:25.428Z,16.30
2023-10-05T17:37:53.621Z,16.30
2023-10-05T17:40:21.654Z,16.20
2023-10-05T17:42:49.025Z,16.10
2023-10-05T17:45:16.439Z,16.20
2023-10-05T17:47:45.925Z,16.50
2023-10-05T17:50:16.045Z,16.60
2023-10-05T17:52:47.813Z,16.70
2023-10-05T17:55:15.953Z,16.70
2023-10-05T17:57:43.412Z,16.80
2023-10-05T18:00:17.153Z,16.70
2023-10-05T18:02:45.465Z,16.80
2023-10-05T18:05:16.883Z,16.60
2023-10-05T18:07:44.702Z,16.40
2023-10-05T18:10:12.603Z,16.20
2023-10-05T18:12:39.841Z,16.20
2023-10-05T18:15:08.006Z,16.10
2023-10-05T18:17:35.645Z,16.30
2023-10-05T18:20:03.164Z,16.40
2023-10-05T18:22:31.134Z,16.40
2023-10-05T18:25:01.238Z,16.30
2023-10-05T18:27:28.395Z,16.20
2023-10-05T18:29:55.731Z,16.10
2023-10-05T18:32:23.426Z,16.10
2023-10-05T18:34:51.028Z,16.00
2023-10-05T18:37:18.469Z,15.90
2023-10-05T18:39:45.586Z,16.00
2023-10-05T18:42:13.002Z,15.80
2023-10-05T18:44:41.917Z,15.50
2023-10-05T18:47:10.799Z,15.40
2023-10-05T18:49:39.072Z,15.40
2023-10-05T18:52:10.224Z,15.40
2023-10-05T18:54:37.869Z,15.40
2023-10-05T18:57:05.020Z,15.40
2023-10-05T18:59:32.424Z,15.50
2023-10-05T19:02:01.021Z,15.60
2023-10-05T19:04:28.859Z,15.60
2023-10-05T19:06:57.421Z,15.60
2023-10-05T19:09:27.718Z,15.70
2023-10-05T19:11:56.283Z,15.90
2023-10-05T19:14:24.063Z,16.00
2023-10-05T19:16:53.394Z,16.00
2023-10-05T19:19:21.081Z,16.00
2023-10-05T19:21:48.318Z,16.00
2023-10-05T19:24:15.994Z,16.10
2023-10-05T19:26:46.410Z,16.00
2023-10-05T19:29:14.178Z,15.80
2023-10-05T19:31:41.756Z,15.60
2023-10-05T19:34:08.961Z,15.50
2023-10-05T19:36:36.823Z,15.40
2023-10-05T19:39:05.248Z,15.40
2023-10-05T19:41:32.670Z,15.30
2023-10-05T19:44:01.064Z,15.40
2023-10-05T19:46:28.620Z,15.50
2023-10-05T19:48:57.625Z,15.30
2023-10-05T19:51:25.417Z,15.10
2023-10-05T19:53:52.787Z,14.90
2023-10-05T19:56:34.354Z,14.90
2023-10-05T19:59:07.046Z,14.90
2023-10-05T20:01:34.320Z,15.00
2023-10-05T20:04:02.442Z,15.00
2023-10-05T20:06:31.129Z,15.00
2023-10-05T20:08:59.404Z,14.90
2023-10-05T20:11:27.193Z,14.90
2023-10-05T20:13:54.787Z,15.00
2023-10-05T20:16:22.113Z,15.00
2023-10-05T20:18:49.722Z,15.00
2023-10-05T20:21:16.834Z,14.90
2023-10-05T20:23:43.964Z,14.80
2023-10-05T20:26:11.277Z,14.90
2023-10-05T20:28:39.954Z,14.80
2023-10-05T20:31:11.552Z,14.70
2023-10-05T20:33:39.852Z,14.70
2023-10-05T20:36:10.575Z,14.50
2023-10-05T20:38:38.270Z,14.20
2023-10-05T20:41:06.369Z,14.30
2023-10-05T20:43:34.960Z,14.30
2023-10-05T20:46:07.798Z,14.30
2023-10-05T20:48:35.690Z,14.30
2023-10-05T20:51:04.801Z,14.50
2023-10-05T20:53:35.324Z,14.60
2023-10-05T20:56:12.200Z,14.60
2023-10-05T20:58:40.376Z,14.50
2023-10-05T21:01:07.704Z,14.60
2023-10-05T21:03:37.799Z,14.50
2023-10-05T21:06:07.468Z,14.30
2023-10-05T21:08:37.934Z,14.20
2023-10-05T21:11:06.249Z,14.20
2023-10-05T21:13:36.750Z,14.40
2023-10-05T21:16:04.588Z,14.40
2023-10-05T21:18:35.323Z,14.30
2023-10-05T21:21:04.629Z,14.50
2023-10-05T21:23:31.825Z,14.40
2023-10-05T21:25:59.771Z,14.50
2023-10-05T21:30:55.667Z,14.60
2023-10-05T21:33:22.913Z,14.60
2023-10-05T21:35:50.739Z,14.30
2023-10-05T21:38:18.155Z,14.30
2023-10-05T21:40:45.290Z,14.00
2023-10-05T21:43:12.882Z,14.10
2023-10-05T21:45:40.018Z,14.10
2023-10-05T21:48:07.461Z,14.10
2023-10-05T21:50:34.727Z,14.10
2023-10-05T21:53:05.574Z,14.10
2023-10-05T21:55:33.348Z,14.30
2023-10-05T21:58:00.752Z,14.30
2023-10-05T22:00:40.217Z,14.20
2023-10-05T22:03:10.218Z,14.10
2023-10-05T22:05:38.825Z,14.00
2023-10-05T22:08:09.926Z,14.00
2023-10-05T22:10:42.694Z,14.10
2023-10-05T22:13:09.963Z,14.20
2023-10-05T22:15:38.608Z,14.10
2023-10-05T22:18:07.029Z,14.10
2023-10-05T22:20:35.495Z,14.00
2023-10-05T22:23:07.889Z,14.00
2023-10-05T22:25:41.103Z,13.90
2023-10-05T22:28:11.622Z,14.00
2023-10-05T22:30:39.386Z,14.10
2023-10-05T22:33:08.519Z,14.20
2023-10-05T22:35:37.232Z,14.10
2023-10-05T22:38:08.309Z,14.00
2023-10-05T22:40:36.747Z,14.00
2023-10-05T22:43:04.276Z,14.00
2023-10-05T22:45:32.245Z,14.00
2023-10-05T22:47:59.373Z,14.00
2023-10-05T22:50:27.157Z,14.00
2023-10-05T22:52:54.805Z,14.00
2023-10-05T22:55:22.385Z,14.10
2023-10-05T22:57:50.446Z,14.10
2023-10-05T23:00:19.962Z,14.20
2023-10-05T23:02:47.613Z,14.20
2023-10-05T23:05:15.059Z,14.20
2023-10-05T23:07:42.567Z,14.10
2023-10-05T23:10:10.397Z,13.90
2023-10-05T23:12:37.751Z,13.90
2023-10-05T23:15:06.362Z,13.90
2023-10-05T23:17:38.210Z,14.00
2023-10-05T23:20:12.234Z,14.10
2023-10-05T23:22:42.440Z,14.20
2023-10-05T23:25:19.190Z,14.20
2023-10-05T23:27:51.138Z,14.20
2023-10-05T23:30:20.617Z,14.20
2023-10-05T23:32:49.783Z,14.20
2023-10-05T23:35:21.187Z,14.20
2023-10-05T23:37:54.273Z,14.20
2023-10-05T23:40:22.888Z,14.20
2023-10-05T23:42:50.113Z,14.30
2023-10-05T23:45:22.399Z,14.40
2023-10-05T23:47:55.702Z,14.50
2023-10-05T23:50:27.614Z,14.50
2023-10-05T23:52:59.317Z,14.50
2023-10-05T23:55:28.026Z,14.50
2023-10-05T23:57:56.109Z,14.50
